sensor_id;sensor_type;location;lat;lon;timestamp;temperature;humidity
63047;DHT22;62025;39.238;9.126;2023-05-07T00:00:39;20.10;57.50
63047;DHT22;62025;39.238;9.126;2023-05-07T00:03:05;20.10;57.60
63047;DHT22;62025;39.238;9.126;2023-05-07T00:05:32;20.10;57.70
63047;DHT22;62025;39.238;9.126;2023-05-07T00:07:58;20.00;57.70
63047;DHT22;62025;39.238;9.126;2023-05-07T00:10:24;20.10;57.80
63047;DHT22;62025;39.238;9.126;2023-05-07T00:12:51;20.10;57.80
63047;DHT22;62025;39.238;9.126;2023-05-07T00:15:16;20.10;57.90
63047;DHT22;62025;39.238;9.126;2023-05-07T00:17:42;20.00;58.10
63047;DHT22;62025;39.238;9.126;2023-05-07T00:20:09;20.00;58.30
63047;DHT22;62025;39.238;9.126;2023-05-07T00:22:35;20.00;58.40
63047;DHT22;62025;39.238;9.126;2023-05-07T00:25:01;20.00;58.60
63047;DHT22;62025;39.238;9.126;2023-05-07T00:27:27;20.00;58.60
63047;DHT22;62025;39.238;9.126;2023-05-07T00:29:53;20.00;58.70
63047;DHT22;62025;39.238;9.126;2023-05-07T00:32:19;19.90;58.90
63047;DHT22;62025;39.238;9.126;2023-05-07T00:34:45;19.90;58.90
63047;DHT22;62025;39.238;9.126;2023-05-07T00:37:11;20.00;58.80
63047;DHT22;62025;39.238;9.126;2023-05-07T00:39:37;20.00;58.80
63047;DHT22;62025;39.238;9.126;2023-05-07T00:42:03;20.00;58.70
63047;DHT22;62025;39.238;9.126;2023-05-07T00:44:29;19.90;58.80
63047;DHT22;62025;39.238;9.126;2023-05-07T00:46:57;19.90;58.90
63047;DHT22;62025;39.238;9.126;2023-05-07T00:49:30;19.90;59.00
63047;DHT22;62025;39.238;9.126;2023-05-07T00:52:11;19.90;59.00
63047;DHT22;62025;39.238;9.126;2023-05-07T00:54:40;19.90;58.90
63047;DHT22;62025;39.238;9.126;2023-05-07T00:57:09;19.90;59.00
63047;DHT22;62025;39.238;9.126;2023-05-07T00:59:37;19.90;59.10
63047;DHT22;62025;39.238;9.126;2023-05-07T01:02:04;19.90;59.30
63047;DHT22;62025;39.238;9.126;2023-05-07T01:04:30;19.80;59.50
63047;DHT22;62025;39.238;9.126;2023-05-07T01:06:56;19.90;59.40
63047;DHT22;62025;39.238;9.126;2023-05-07T01:09:28;19.90;59.50
63047;DHT22;62025;39.238;9.126;2023-05-07T01:11:55;19.90;59.80
63047;DHT22;62025;39.238;9.126;2023-05-07T01:14:23;19.90;59.70
63047;DHT22;62025;39.238;9.126;2023-05-07T01:16:49;19.90;60.10
63047;DHT22;62025;39.238;9.126;2023-05-07T01:19:19;19.80;60.20
63047;DHT22;62025;39.238;9.126;2023-05-07T01:21:47;19.90;60.10
63047;DHT22;62025;39.238;9.126;2023-05-07T01:24:16;19.80;60.10
63047;DHT22;62025;39.238;9.126;2023-05-07T01:26:45;19.80;60.20
63047;DHT22;62025;39.238;9.126;2023-05-07T01:29:13;19.90;60.20
63047;DHT22;62025;39.238;9.126;2023-05-07T01:31:41;19.80;60.40
63047;DHT22;62025;39.238;9.126;2023-05-07T01:34:10;19.90;60.40
63047;DHT22;62025;39.238;9.126;2023-05-07T01:36:38;19.90;60.30
63047;DHT22;62025;39.238;9.126;2023-05-07T01:39:06;19.80;60.60
63047;DHT22;62025;39.238;9.126;2023-05-07T01:41:32;19.70;61.00
63047;DHT22;62025;39.238;9.126;2023-05-07T01:43:59;19.70;61.00
63047;DHT22;62025;39.238;9.126;2023-05-07T01:46:26;19.60;61.00
63047;DHT22;62025;39.238;9.126;2023-05-07T01:48:53;19.60;61.20
63047;DHT22;62025;39.238;9.126;2023-05-07T01:51:19;19.70;61.00
63047;DHT22;62025;39.238;9.126;2023-05-07T01:53:46;19.70;61.10
63047;DHT22;62025;39.238;9.126;2023-05-07T01:56:18;19.60;61.30
63047;DHT22;62025;39.238;9.126;2023-05-07T01:58:45;19.60;61.30
63047;DHT22;62025;39.238;9.126;2023-05-07T02:01:13;19.60;61.40
63047;DHT22;62025;39.238;9.126;2023-05-07T02:03:40;19.60;61.20
63047;DHT22;62025;39.238;9.126;2023-05-07T02:06:13;19.60;61.20
63047;DHT22;62025;39.238;9.126;2023-05-07T02:08:39;19.60;61.10
63047;DHT22;62025;39.238;9.126;2023-05-07T02:11:05;19.60;60.90
63047;DHT22;62025;39.238;9.126;2023-05-07T02:13:33;19.60;60.60
63047;DHT22;62025;39.238;9.126;2023-05-07T02:16:03;19.60;60.50
63047;DHT22;62025;39.238;9.126;2023-05-07T02:18:29;19.50;60.20
63047;DHT22;62025;39.238;9.126;2023-05-07T02:20:56;19.50;60.20
63047;DHT22;62025;39.238;9.126;2023-05-07T02:23:22;19.50;60.20
63047;DHT22;62025;39.238;9.126;2023-05-07T02:25:48;19.50;60.30
63047;DHT22;62025;39.238;9.126;2023-05-07T02:28:14;19.50;60.30
63047;DHT22;62025;39.238;9.126;2023-05-07T02:30:49;19.50;60.30
63047;DHT22;62025;39.238;9.126;2023-05-07T02:33:16;19.40;60.50
63047;DHT22;62025;39.238;9.126;2023-05-07T02:35:42;19.40;60.50
63047;DHT22;62025;39.238;9.126;2023-05-07T02:38:10;19.40;60.60
63047;DHT22;62025;39.238;9.126;2023-05-07T02:40:37;19.40;60.80
63047;DHT22;62025;39.238;9.126;2023-05-07T02:43:06;19.40;60.80
63047;DHT22;62025;39.238;9.126;2023-05-07T02:45:32;19.40;61.20
63047;DHT22;62025;39.238;9.126;2023-05-07T02:48:00;19.40;61.20
63047;DHT22;62025;39.238;9.126;2023-05-07T02:50:26;19.40;61.30
63047;DHT22;62025;39.238;9.126;2023-05-07T02:52:53;19.30;61.40
63047;DHT22;62025;39.238;9.126;2023-05-07T02:55:19;19.30;61.40
63047;DHT22;62025;39.238;9.126;2023-05-07T02:57:45;19.40;61.30
63047;DHT22;62025;39.238;9.126;2023-05-07T03:00:13;19.40;61.30
63047;DHT22;62025;39.238;9.126;2023-05-07T03:02:45;19.30;61.30
63047;DHT22;62025;39.238;9.126;2023-05-07T03:05:12;19.30;61.30
63047;DHT22;62025;39.238;9.126;2023-05-07T03:07:40;19.30;61.40
63047;DHT22;62025;39.238;9.126;2023-05-07T03:10:09;19.30;60.80
63047;DHT22;62025;39.238;9.126;2023-05-07T03:12:35;19.30;60.60
63047;DHT22;62025;39.238;9.126;2023-05-07T03:15:02;19.30;60.40
63047;DHT22;62025;39.238;9.126;2023-05-07T03:17:28;19.30;60.10
63047;DHT22;62025;39.238;9.126;2023-05-07T03:19:54;19.30;60.00
63047;DHT22;62025;39.238;9.126;2023-05-07T03:22:20;19.30;59.90
63047;DHT22;62025;39.238;9.126;2023-05-07T03:24:46;19.30;60.00
63047;DHT22;62025;39.238;9.126;2023-05-07T03:27:12;19.30;60.00
63047;DHT22;62025;39.238;9.126;2023-05-07T03:29:39;19.20;60.20
63047;DHT22;62025;39.238;9.126;2023-05-07T03:32:05;19.20;60.30
63047;DHT22;62025;39.238;9.126;2023-05-07T03:34:31;19.30;60.20
63047;DHT22;62025;39.238;9.126;2023-05-07T03:36:57;19.30;60.30
63047;DHT22;62025;39.238;9.126;2023-05-07T03:39:24;19.20;60.30
63047;DHT22;62025;39.238;9.126;2023-05-07T03:41:50;19.10;60.60
63047;DHT22;62025;39.238;9.126;2023-05-07T03:44:16;19.20;60.40
63047;DHT22;62025;39.238;9.126;2023-05-07T03:46:42;19.20;60.30
63047;DHT22;62025;39.238;9.126;2023-05-07T03:49:10;19.20;60.00
63047;DHT22;62025;39.238;9.126;2023-05-07T03:51:36;19.20;59.80
63047;DHT22;62025;39.238;9.126;2023-05-07T03:54:04;19.20;60.00
63047;DHT22;62025;39.238;9.126;2023-05-07T03:56:31;19.20;59.90
63047;DHT22;62025;39.238;9.126;2023-05-07T03:59:00;19.10;59.80
63047;DHT22;62025;39.238;9.126;2023-05-07T04:01:27;19.10;59.80
63047;DHT22;62025;39.238;9.126;2023-05-07T04:03:53;19.10;59.80
63047;DHT22;62025;39.238;9.126;2023-05-07T04:06:20;19.10;59.80
63047;DHT22;62025;39.238;9.126;2023-05-07T04:08:48;19.00;60.00
63047;DHT22;62025;39.238;9.126;2023-05-07T04:11:14;19.10;60.20
63047;DHT22;62025;39.238;9.126;2023-05-07T04:13:39;19.10;60.20
63047;DHT22;62025;39.238;9.126;2023-05-07T04:16:08;19.10;60.20
63047;DHT22;62025;39.238;9.126;2023-05-07T04:18:36;19.10;60.30
63047;DHT22;62025;39.238;9.126;2023-05-07T04:21:02;19.00;60.10
63047;DHT22;62025;39.238;9.126;2023-05-07T04:23:28;18.90;59.90
63047;DHT22;62025;39.238;9.126;2023-05-07T04:25:56;18.90;59.90
63047;DHT22;62025;39.238;9.126;2023-05-07T04:28:32;18.90;59.70
63047;DHT22;62025;39.238;9.126;2023-05-07T04:30:58;19.00;59.70
63047;DHT22;62025;39.238;9.126;2023-05-07T04:33:24;19.00;59.90
63047;DHT22;62025;39.238;9.126;2023-05-07T04:35:50;19.00;59.90
63047;DHT22;62025;39.238;9.126;2023-05-07T04:38:17;19.00;60.00
63047;DHT22;62025;39.238;9.126;2023-05-07T04:40:45;19.00;60.30
63047;DHT22;62025;39.238;9.126;2023-05-07T04:43:16;19.00;60.40
63047;DHT22;62025;39.238;9.126;2023-05-07T04:45:47;19.00;60.40
63047;DHT22;62025;39.238;9.126;2023-05-07T04:48:15;19.00;60.60
63047;DHT22;62025;39.238;9.126;2023-05-07T04:50:42;19.10;60.70
63047;DHT22;62025;39.238;9.126;2023-05-07T04:53:08;19.10;60.80
63047;DHT22;62025;39.238;9.126;2023-05-07T04:55:35;19.10;60.80
63047;DHT22;62025;39.238;9.126;2023-05-07T04:58:02;19.10;60.90
63047;DHT22;62025;39.238;9.126;2023-05-07T05:00:31;19.10;61.10
63047;DHT22;62025;39.238;9.126;2023-05-07T05:02:58;19.10;61.20
63047;DHT22;62025;39.238;9.126;2023-05-07T05:05:24;19.20;61.10
63047;DHT22;62025;39.238;9.126;2023-05-07T05:07:53;19.20;61.10
63047;DHT22;62025;39.238;9.126;2023-05-07T05:10:19;19.20;60.80
63047;DHT22;62025;39.238;9.126;2023-05-07T05:12:45;19.20;60.80
63047;DHT22;62025;39.238;9.126;2023-05-07T05:15:12;19.30;60.60
63047;DHT22;62025;39.238;9.126;2023-05-07T05:17:39;19.30;59.10
63047;DHT22;62025;39.238;9.126;2023-05-07T05:20:06;19.30;58.40
63047;DHT22;62025;39.238;9.126;2023-05-07T05:22:33;19.40;58.00
63047;DHT22;62025;39.238;9.126;2023-05-07T05:25:00;19.40;57.00
63047;DHT22;62025;39.238;9.126;2023-05-07T05:27:27;19.40;56.40
63047;DHT22;62025;39.238;9.126;2023-05-07T05:29:54;19.40;56.30
63047;DHT22;62025;39.238;9.126;2023-05-07T05:32:20;19.50;55.90
63047;DHT22;62025;39.238;9.126;2023-05-07T05:34:46;19.50;55.20
63047;DHT22;62025;39.238;9.126;2023-05-07T05:37:12;19.50;54.50
63047;DHT22;62025;39.238;9.126;2023-05-07T05:39:39;19.50;54.90
63047;DHT22;62025;39.238;9.126;2023-05-07T05:42:07;19.60;55.60
63047;DHT22;62025;39.238;9.126;2023-05-07T05:44:35;19.70;55.70
63047;DHT22;62025;39.238;9.126;2023-05-07T05:47:01;19.80;57.00
63047;DHT22;62025;39.238;9.126;2023-05-07T05:49:28;19.90;55.00
63047;DHT22;62025;39.238;9.126;2023-05-07T05:51:54;19.60;52.80
63047;DHT22;62025;39.238;9.126;2023-05-07T05:54:22;19.70;53.20
63047;DHT22;62025;39.238;9.126;2023-05-07T05:56:49;19.80;53.20
63047;DHT22;62025;39.238;9.126;2023-05-07T05:59:15;19.90;53.90
63047;DHT22;62025;39.238;9.126;2023-05-07T06:01:41;19.90;53.50
63047;DHT22;62025;39.238;9.126;2023-05-07T06:04:07;19.90;55.80
63047;DHT22;62025;39.238;9.126;2023-05-07T06:06:34;19.90;54.70
63047;DHT22;62025;39.238;9.126;2023-05-07T06:09:01;20.00;54.50
63047;DHT22;62025;39.238;9.126;2023-05-07T06:11:34;20.20;53.60
63047;DHT22;62025;39.238;9.126;2023-05-07T06:14:01;20.30;54.80
63047;DHT22;62025;39.238;9.126;2023-05-07T06:16:28;20.30;54.80
63047;DHT22;62025;39.238;9.126;2023-05-07T06:18:56;20.50;53.40
63047;DHT22;62025;39.238;9.126;2023-05-07T06:21:23;20.60;53.20
63047;DHT22;62025;39.238;9.126;2023-05-07T06:23:49;20.60;51.10
63047;DHT22;62025;39.238;9.126;2023-05-07T06:26:17;20.70;50.90
63047;DHT22;62025;39.238;9.126;2023-05-07T06:28:46;20.90;50.60
63047;DHT22;62025;39.238;9.126;2023-05-07T06:31:18;20.90;50.50
63047;DHT22;62025;39.238;9.126;2023-05-07T06:33:56;21.00;51.40
63047;DHT22;62025;39.238;9.126;2023-05-07T06:36:26;21.20;51.60
63047;DHT22;62025;39.238;9.126;2023-05-07T06:38:55;21.40;48.40
63047;DHT22;62025;39.238;9.126;2023-05-07T06:41:22;21.40;48.50
63047;DHT22;62025;39.238;9.126;2023-05-07T06:43:48;21.40;48.00
63047;DHT22;62025;39.238;9.126;2023-05-07T06:46:35;21.40;47.60
63047;DHT22;62025;39.238;9.126;2023-05-07T06:49:03;21.40;47.40
63047;DHT22;62025;39.238;9.126;2023-05-07T06:51:30;21.60;47.20
63047;DHT22;62025;39.238;9.126;2023-05-07T06:54:00;21.90;47.00
63047;DHT22;62025;39.238;9.126;2023-05-07T06:56:26;22.00;47.00
63047;DHT22;62025;39.238;9.126;2023-05-07T06:58:53;22.10;46.50
63047;DHT22;62025;39.238;9.126;2023-05-07T07:01:20;22.30;45.50
63047;DHT22;62025;39.238;9.126;2023-05-07T07:03:46;22.40;45.70
63047;DHT22;62025;39.238;9.126;2023-05-07T07:06:12;22.20;45.40
63047;DHT22;62025;39.238;9.126;2023-05-07T07:08:39;22.30;45.40
63047;DHT22;62025;39.238;9.126;2023-05-07T07:11:06;22.30;44.90
63047;DHT22;62025;39.238;9.126;2023-05-07T07:13:33;22.40;44.90
63047;DHT22;62025;39.238;9.126;2023-05-07T07:16:00;22.40;44.00
63047;DHT22;62025;39.238;9.126;2023-05-07T07:18:26;22.40;43.80
63047;DHT22;62025;39.238;9.126;2023-05-07T07:20:53;22.50;43.50
63047;DHT22;62025;39.238;9.126;2023-05-07T07:23:20;22.30;42.90
63047;DHT22;62025;39.238;9.126;2023-05-07T07:25:46;22.20;43.60
63047;DHT22;62025;39.238;9.126;2023-05-07T07:28:13;22.40;43.60
63047;DHT22;62025;39.238;9.126;2023-05-07T07:30:39;22.40;43.50
63047;DHT22;62025;39.238;9.126;2023-05-07T07:33:05;22.60;43.30
63047;DHT22;62025;39.238;9.126;2023-05-07T07:35:35;22.70;42.90
63047;DHT22;62025;39.238;9.126;2023-05-07T07:38:01;22.90;42.50
63047;DHT22;62025;39.238;9.126;2023-05-07T07:40:29;22.90;42.40
63047;DHT22;62025;39.238;9.126;2023-05-07T07:42:57;23.00;41.90
63047;DHT22;62025;39.238;9.126;2023-05-07T07:45:23;23.30;41.90
63047;DHT22;62025;39.238;9.126;2023-05-07T07:47:51;23.20;41.50
63047;DHT22;62025;39.238;9.126;2023-05-07T07:50:17;23.20;41.20
63047;DHT22;62025;39.238;9.126;2023-05-07T07:52:43;23.40;40.90
63047;DHT22;62025;39.238;9.126;2023-05-07T07:55:13;23.50;41.30
63047;DHT22;62025;39.238;9.126;2023-05-07T07:57:39;23.10;41.60
63047;DHT22;62025;39.238;9.126;2023-05-07T08:00:06;23.20;42.20
63047;DHT22;62025;39.238;9.126;2023-05-07T08:02:42;23.40;41.90
63047;DHT22;62025;39.238;9.126;2023-05-07T08:05:09;23.40;41.60
63047;DHT22;62025;39.238;9.126;2023-05-07T08:07:35;23.60;41.10
63047;DHT22;62025;39.238;9.126;2023-05-07T08:10:02;23.50;41.30
63047;DHT22;62025;39.238;9.126;2023-05-07T08:12:28;23.40;41.90
63047;DHT22;62025;39.238;9.126;2023-05-07T08:14:54;23.50;41.50
63047;DHT22;62025;39.238;9.126;2023-05-07T08:17:21;23.70;41.30
63047;DHT22;62025;39.238;9.126;2023-05-07T08:19:48;23.70;41.20
63047;DHT22;62025;39.238;9.126;2023-05-07T08:22:15;23.80;40.70
63047;DHT22;62025;39.238;9.126;2023-05-07T08:24:41;24.10;39.90
63047;DHT22;62025;39.238;9.126;2023-05-07T08:27:07;23.90;39.70
63047;DHT22;62025;39.238;9.126;2023-05-07T08:29:34;24.00;39.60
63047;DHT22;62025;39.238;9.126;2023-05-07T08:32:00;24.20;39.00
63047;DHT22;62025;39.238;9.126;2023-05-07T08:34:26;24.20;38.60
63047;DHT22;62025;39.238;9.126;2023-05-07T08:36:54;23.90;39.20
63047;DHT22;62025;39.238;9.126;2023-05-07T08:39:23;24.20;38.90
63047;DHT22;62025;39.238;9.126;2023-05-07T08:41:54;24.10;39.70
63047;DHT22;62025;39.238;9.126;2023-05-07T08:44:26;24.40;39.60
63047;DHT22;62025;39.238;9.126;2023-05-07T08:46:59;24.40;39.00
63047;DHT22;62025;39.238;9.126;2023-05-07T08:49:28;24.40;37.90
63047;DHT22;62025;39.238;9.126;2023-05-07T08:51:54;24.40;37.90
63047;DHT22;62025;39.238;9.126;2023-05-07T08:54:21;24.40;37.80
63047;DHT22;62025;39.238;9.126;2023-05-07T08:56:48;24.40;37.70
63047;DHT22;62025;39.238;9.126;2023-05-07T08:59:15;24.20;38.50
63047;DHT22;62025;39.238;9.126;2023-05-07T09:01:42;24.30;38.30
63047;DHT22;62025;39.238;9.126;2023-05-07T09:04:09;24.60;38.40
63047;DHT22;62025;39.238;9.126;2023-05-07T09:06:36;24.60;38.10
63047;DHT22;62025;39.238;9.126;2023-05-07T09:09:08;24.80;37.90
63047;DHT22;62025;39.238;9.126;2023-05-07T09:11:35;24.70;38.00
63047;DHT22;62025;39.238;9.126;2023-05-07T09:14:01;24.80;37.70
63047;DHT22;62025;39.238;9.126;2023-05-07T09:16:32;25.00;37.20
63047;DHT22;62025;39.238;9.126;2023-05-07T09:19:00;25.10;36.70
63047;DHT22;62025;39.238;9.126;2023-05-07T09:21:27;25.10;36.30
63047;DHT22;62025;39.238;9.126;2023-05-07T09:23:55;24.70;36.20
63047;DHT22;62025;39.238;9.126;2023-05-07T09:26:27;24.90;36.70
63047;DHT22;62025;39.238;9.126;2023-05-07T09:28:54;24.90;35.90
63047;DHT22;62025;39.238;9.126;2023-05-07T09:31:20;24.90;35.50
63047;DHT22;62025;39.238;9.126;2023-05-07T09:33:49;25.10;39.60
63047;DHT22;62025;39.238;9.126;2023-05-07T09:36:16;24.90;42.70
63047;DHT22;62025;39.238;9.126;2023-05-07T09:38:45;24.90;42.90
63047;DHT22;62025;39.238;9.126;2023-05-07T09:53:07;24.90;43.40
63047;DHT22;62025;39.238;9.126;2023-05-07T09:55:36;25.50;43.30
63047;DHT22;62025;39.238;9.126;2023-05-07T09:58:04;25.40;43.00
63047;DHT22;62025;39.238;9.126;2023-05-07T10:00:32;25.20;42.40
63047;DHT22;62025;39.238;9.126;2023-05-07T10:03:09;25.40;42.30
63047;DHT22;62025;39.238;9.126;2023-05-07T10:05:52;25.50;38.50
63047;DHT22;62025;39.238;9.126;2023-05-07T10:08:20;25.40;38.40
63047;DHT22;62025;39.238;9.126;2023-05-07T10:10:49;25.40;38.60
63047;DHT22;62025;39.238;9.126;2023-05-07T10:13:20;25.40;38.30
63047;DHT22;62025;39.238;9.126;2023-05-07T10:15:50;25.00;39.60
63047;DHT22;62025;39.238;9.126;2023-05-07T10:18:18;25.30;39.60
63047;DHT22;62025;39.238;9.126;2023-05-07T10:20:51;25.40;39.30
63047;DHT22;62025;39.238;9.126;2023-05-07T10:23:22;25.30;39.90
63047;DHT22;62025;39.238;9.126;2023-05-07T10:25:51;25.30;42.00
63047;DHT22;62025;39.238;9.126;2023-05-07T10:28:22;25.50;43.00
63047;DHT22;62025;39.238;9.126;2023-05-07T10:33:36;25.30;44.00
63047;DHT22;62025;39.238;9.126;2023-05-07T10:36:03;25.40;45.20
63047;DHT22;62025;39.238;9.126;2023-05-07T10:38:33;25.40;45.00
63047;DHT22;62025;39.238;9.126;2023-05-07T10:41:02;25.30;44.60
63047;DHT22;62025;39.238;9.126;2023-05-07T10:43:42;25.30;44.50
63047;DHT22;62025;39.238;9.126;2023-05-07T10:46:15;24.80;44.30
63047;DHT22;62025;39.238;9.126;2023-05-07T10:52:25;25.10;46.70
63047;DHT22;62025;39.238;9.126;2023-05-07T10:57:49;25.40;46.90
63047;DHT22;62025;39.238;9.126;2023-05-07T11:05:31;25.30;44.30
63047;DHT22;62025;39.238;9.126;2023-05-07T11:08:24;24.90;44.50
63047;DHT22;62025;39.238;9.126;2023-05-07T11:11:04;24.40;45.60
63047;DHT22;62025;39.238;9.126;2023-05-07T11:16:38;24.30;49.20
63047;DHT22;62025;39.238;9.126;2023-05-07T11:19:15;23.90;51.60
63047;DHT22;62025;39.238;9.126;2023-05-07T11:21:46;24.10;50.20
63047;DHT22;62025;39.238;9.126;2023-05-07T11:24:21;24.10;50.40
63047;DHT22;62025;39.238;9.126;2023-05-07T11:26:53;24.10;49.60
63047;DHT22;62025;39.238;9.126;2023-05-07T11:29:21;24.00;49.90
63047;DHT22;62025;39.238;9.126;2023-05-07T11:31:53;23.90;49.40
63047;DHT22;62025;39.238;9.126;2023-05-07T11:34:24;23.80;49.70
63047;DHT22;62025;39.238;9.126;2023-05-07T11:36:53;23.80;50.90
63047;DHT22;62025;39.238;9.126;2023-05-07T11:39:32;23.80;50.90
63047;DHT22;62025;39.238;9.126;2023-05-07T11:42:02;23.60;52.60
63047;DHT22;62025;39.238;9.126;2023-05-07T11:44:44;23.50;52.80
63047;DHT22;62025;39.238;9.126;2023-05-07T11:47:16;23.60;52.90
63047;DHT22;62025;39.238;9.126;2023-05-07T11:49:45;23.60;53.10
63047;DHT22;62025;39.238;9.126;2023-05-07T11:52:15;23.50;53.20
63047;DHT22;62025;39.238;9.126;2023-05-07T11:54:54;23.50;53.90
63047;DHT22;62025;39.238;9.126;2023-05-07T11:57:22;23.50;52.40
63047;DHT22;62025;39.238;9.126;2023-05-07T11:59:56;23.50;52.90
63047;DHT22;62025;39.238;9.126;2023-05-07T12:02:24;23.40;52.60
63047;DHT22;62025;39.238;9.126;2023-05-07T12:04:54;23.40;52.10
63047;DHT22;62025;39.238;9.126;2023-05-07T12:07:21;23.40;51.70
63047;DHT22;62025;39.238;9.126;2023-05-07T12:09:47;23.40;51.50
63047;DHT22;62025;39.238;9.126;2023-05-07T12:12:14;23.20;51.80
63047;DHT22;62025;39.238;9.126;2023-05-07T12:14:42;23.40;51.00
63047;DHT22;62025;39.238;9.126;2023-05-07T12:17:10;23.40;50.60
63047;DHT22;62025;39.238;9.126;2023-05-07T12:19:39;23.60;49.80
63047;DHT22;62025;39.238;9.126;2023-05-07T12:22:08;23.70;48.10
63047;DHT22;62025;39.238;9.126;2023-05-07T12:27:17;23.30;46.00
63047;DHT22;62025;39.238;9.126;2023-05-07T12:29:47;23.50;46.80
63047;DHT22;62025;39.238;9.126;2023-05-07T12:32:18;23.50;46.70
63047;DHT22;62025;39.238;9.126;2023-05-07T12:34:49;23.40;47.20
63047;DHT22;62025;39.238;9.126;2023-05-07T12:37:22;23.50;49.30
63047;DHT22;62025;39.238;9.126;2023-05-07T12:40:02;23.40;49.40
63047;DHT22;62025;39.238;9.126;2023-05-07T12:42:36;23.60;49.90
63047;DHT22;62025;39.238;9.126;2023-05-07T12:45:10;23.40;49.10
63047;DHT22;62025;39.238;9.126;2023-05-07T12:47:37;23.10;50.20
63047;DHT22;62025;39.238;9.126;2023-05-07T12:50:06;23.10;50.80
63047;DHT22;62025;39.238;9.126;2023-05-07T12:52:33;23.10;50.30
63047;DHT22;62025;39.238;9.126;2023-05-07T12:55:05;23.10;50.20
63047;DHT22;62025;39.238;9.126;2023-05-07T12:57:47;23.10;49.20
63047;DHT22;62025;39.238;9.126;2023-05-07T13:00:14;23.00;49.80
63047;DHT22;62025;39.238;9.126;2023-05-07T13:02:42;23.10;49.50
63047;DHT22;62025;39.238;9.126;2023-05-07T13:05:12;23.30;48.80
63047;DHT22;62025;39.238;9.126;2023-05-07T13:07:38;23.30;49.40
63047;DHT22;62025;39.238;9.126;2023-05-07T13:10:06;23.30;49.10
63047;DHT22;62025;39.238;9.126;2023-05-07T13:12:33;23.30;49.00
63047;DHT22;62025;39.238;9.126;2023-05-07T13:14:59;23.30;49.40
63047;DHT22;62025;39.238;9.126;2023-05-07T13:17:25;23.40;48.80
63047;DHT22;62025;39.238;9.126;2023-05-07T13:19:50;23.40;47.40
63047;DHT22;62025;39.238;9.126;2023-05-07T13:22:16;23.40;46.90
63047;DHT22;62025;39.238;9.126;2023-05-07T13:24:42;23.50;46.90
63047;DHT22;62025;39.238;9.126;2023-05-07T13:27:09;23.50;46.40
63047;DHT22;62025;39.238;9.126;2023-05-07T13:29:35;23.60;46.40
63047;DHT22;62025;39.238;9.126;2023-05-07T13:32:01;23.50;45.70
63047;DHT22;62025;39.238;9.126;2023-05-07T13:34:28;23.60;45.30
63047;DHT22;62025;39.238;9.126;2023-05-07T13:36:54;23.60;43.80
63047;DHT22;62025;39.238;9.126;2023-05-07T13:39:21;23.60;43.80
63047;DHT22;62025;39.238;9.126;2023-05-07T13:41:47;23.70;43.40
63047;DHT22;62025;39.238;9.126;2023-05-07T13:44:12;23.80;42.90
63047;DHT22;62025;39.238;9.126;2023-05-07T13:46:38;23.80;41.90
63047;DHT22;62025;39.238;9.126;2023-05-07T13:49:04;23.80;41.10
63047;DHT22;62025;39.238;9.126;2023-05-07T13:51:31;23.80;40.90
63047;DHT22;62025;39.238;9.126;2023-05-07T13:53:56;23.70;40.10
63047;DHT22;62025;39.238;9.126;2023-05-07T13:56:24;23.80;39.80
63047;DHT22;62025;39.238;9.126;2023-05-07T13:58:50;23.90;40.20
63047;DHT22;62025;39.238;9.126;2023-05-07T14:01:16;23.90;40.30
63047;DHT22;62025;39.238;9.126;2023-05-07T14:03:42;23.90;40.20
63047;DHT22;62025;39.238;9.126;2023-05-07T14:06:08;23.90;40.20
63047;DHT22;62025;39.238;9.126;2023-05-07T14:08:34;23.90;39.80
63047;DHT22;62025;39.238;9.126;2023-05-07T14:11:00;23.90;39.30
63047;DHT22;62025;39.238;9.126;2023-05-07T14:13:26;23.90;38.90
63047;DHT22;62025;39.238;9.126;2023-05-07T14:15:55;23.90;38.80
63047;DHT22;62025;39.238;9.126;2023-05-07T14:18:21;23.80;38.30
63047;DHT22;62025;39.238;9.126;2023-05-07T14:20:47;23.80;38.90
63047;DHT22;62025;39.238;9.126;2023-05-07T14:23:15;23.90;39.40
63047;DHT22;62025;39.238;9.126;2023-05-07T14:25:43;23.90;39.60
63047;DHT22;62025;39.238;9.126;2023-05-07T14:28:09;24.00;39.30
63047;DHT22;62025;39.238;9.126;2023-05-07T14:30:35;24.00;39.50
63047;DHT22;62025;39.238;9.126;2023-05-07T14:33:01;23.90;38.90
63047;DHT22;62025;39.238;9.126;2023-05-07T14:35:27;23.90;39.60
63047;DHT22;62025;39.238;9.126;2023-05-07T14:37:53;23.80;39.50
63047;DHT22;62025;39.238;9.126;2023-05-07T14:40:19;23.90;38.50
63047;DHT22;62025;39.238;9.126;2023-05-07T14:42:45;23.90;38.70
63047;DHT22;62025;39.238;9.126;2023-05-07T14:45:11;23.90;39.00
63047;DHT22;62025;39.238;9.126;2023-05-07T14:47:37;23.80;38.80
63047;DHT22;62025;39.238;9.126;2023-05-07T14:50:03;23.90;38.70
63047;DHT22;62025;39.238;9.126;2023-05-07T14:52:29;23.90;39.00
63047;DHT22;62025;39.238;9.126;2023-05-07T14:54:55;23.90;38.40
63047;DHT22;62025;39.238;9.126;2023-05-07T14:57:21;23.90;38.30
63047;DHT22;62025;39.238;9.126;2023-05-07T14:59:47;23.90;37.60
63047;DHT22;62025;39.238;9.126;2023-05-07T15:02:13;23.90;38.10
63047;DHT22;62025;39.238;9.126;2023-05-07T15:04:40;24.00;37.70
63047;DHT22;62025;39.238;9.126;2023-05-07T15:07:15;24.00;37.70
63047;DHT22;62025;39.238;9.126;2023-05-07T15:09:42;23.90;37.60
63047;DHT22;62025;39.238;9.126;2023-05-07T15:12:08;23.90;38.20
63047;DHT22;62025;39.238;9.126;2023-05-07T15:14:34;23.90;38.70
63047;DHT22;62025;39.238;9.126;2023-05-07T15:17:00;23.90;38.60
63047;DHT22;62025;39.238;9.126;2023-05-07T15:19:26;23.90;38.90
63047;DHT22;62025;39.238;9.126;2023-05-07T15:21:56;23.80;39.30
63047;DHT22;62025;39.238;9.126;2023-05-07T15:24:23;23.80;38.60
63047;DHT22;62025;39.238;9.126;2023-05-07T15:26:51;23.80;39.40
63047;DHT22;62025;39.238;9.126;2023-05-07T15:29:17;23.80;39.30
63047;DHT22;62025;39.238;9.126;2023-05-07T15:31:44;23.80;40.20
63047;DHT22;62025;39.238;9.126;2023-05-07T15:34:10;23.80;40.40
63047;DHT22;62025;39.238;9.126;2023-05-07T15:36:36;23.80;40.70
63047;DHT22;62025;39.238;9.126;2023-05-07T15:39:02;23.80;41.40
63047;DHT22;62025;39.238;9.126;2023-05-07T15:41:29;23.70;41.30
63047;DHT22;62025;39.238;9.126;2023-05-07T15:43:55;23.80;41.70
63047;DHT22;62025;39.238;9.126;2023-05-07T15:46:22;23.60;42.60
63047;DHT22;62025;39.238;9.126;2023-05-07T15:48:50;23.50;42.30
63047;DHT22;62025;39.238;9.126;2023-05-07T15:51:17;23.60;43.30
63047;DHT22;62025;39.238;9.126;2023-05-07T15:53:44;23.40;42.90
63047;DHT22;62025;39.238;9.126;2023-05-07T15:56:10;23.50;43.50
63047;DHT22;62025;39.238;9.126;2023-05-07T15:58:36;23.40;43.60
63047;DHT22;62025;39.238;9.126;2023-05-07T16:01:03;23.40;43.90
63047;DHT22;62025;39.238;9.126;2023-05-07T16:03:30;23.40;43.60
63047;DHT22;62025;39.238;9.126;2023-05-07T16:05:57;23.40;43.40